sensor_id;sensor_type;location;lat;lon;timestamp;temperature;humidity
5218;DHT22;26539;51.064;6.346;2022-08-05T00:01:52;22.50;1.00
5218;DHT22;26539;51.064;6.346;2022-08-05T00:04:18;22.50;1.00
5218;DHT22;26539;51.064;6.346;2022-08-05T00:06:43;22.40;1.00
5218;DHT22;26539;51.064;6.346;2022-08-05T00:09:09;22.40;1.00
5218;DHT22;26539;51.064;6.346;2022-08-05T00:11:34;22.40;1.00
5218;DHT22;26539;51.064;6.346;2022-08-05T00:14:01;22.40;1.00
5218;DHT22;26539;51.064;6.346;2022-08-05T00:16:27;22.30;1.00
5218;DHT22;26539;51.064;6.346;2022-08-05T00:18:52;22.30;1.00
5218;DHT22;26539;51.064;6.346;2022-08-05T00:21:18;22.20;1.00
5218;DHT22;26539;51.064;6.346;2022-08-05T00:23:45;22.20;1.00
5218;DHT22;26539;51.064;6.346;2022-08-05T00:26:11;22.20;1.00
5218;DHT22;26539;51.064;6.346;2022-08-05T00:28:37;22.20;1.00
5218;DHT22;26539;51.064;6.346;2022-08-05T00:31:06;22.20;1.00
5218;DHT22;26539;51.064;6.346;2022-08-05T00:33:32;22.20;1.00
5218;DHT22;26539;51.064;6.346;2022-08-05T00:35:58;22.20;1.00
5218;DHT22;26539;51.064;6.346;2022-08-05T00:38:24;22.10;39.10
5218;DHT22;26539;51.064;6.346;2022-08-05T00:40:55;22.10;87.10
5218;DHT22;26539;51.064;6.346;2022-08-05T00:43:21;22.00;99.90
5218;DHT22;26539;51.064;6.346;2022-08-05T00:45:48;22.00;99.90
5218;DHT22;26539;51.064;6.346;2022-08-05T00:48:19;22.00;99.90
5218;DHT22;26539;51.064;6.346;2022-08-05T00:50:47;22.00;1.00
5218;DHT22;26539;51.064;6.346;2022-08-05T00:53:19;21.90;1.00
5218;DHT22;26539;51.064;6.346;2022-08-05T00:55:45;21.80;1.00
5218;DHT22;26539;51.064;6.346;2022-08-05T00:58:12;21.80;1.00
5218;DHT22;26539;51.064;6.346;2022-08-05T01:00:39;21.70;83.80
5218;DHT22;26539;51.064;6.346;2022-08-05T01:03:05;21.70;99.90
5218;DHT22;26539;51.064;6.346;2022-08-05T01:05:30;21.70;99.90
5218;DHT22;26539;51.064;6.346;2022-08-05T01:07:56;21.60;99.90
5218;DHT22;26539;51.064;6.346;2022-08-05T01:10:26;21.60;99.90
5218;DHT22;26539;51.064;6.346;2022-08-05T01:12:55;21.60;99.90
5218;DHT22;26539;51.064;6.346;2022-08-05T01:15:27;21.60;1.00
5218;DHT22;26539;51.064;6.346;2022-08-05T01:18:07;21.60;1.00
5218;DHT22;26539;51.064;6.346;2022-08-05T01:21:03;21.60;1.00
5218;DHT22;26539;51.064;6.346;2022-08-05T01:23:43;21.50;99.90
5218;DHT22;26539;51.064;6.346;2022-08-05T01:26:39;21.50;99.90
5218;DHT22;26539;51.064;6.346;2022-08-05T01:29:18;21.40;1.00
5218;DHT22;26539;51.064;6.346;2022-08-05T01:31:47;21.40;1.00
5218;DHT22;26539;51.064;6.346;2022-08-05T01:34:27;21.40;1.00
5218;DHT22;26539;51.064;6.346;2022-08-05T01:37:00;21.30;1.00
5218;DHT22;26539;51.064;6.346;2022-08-05T01:39:31;21.30;17.70
5218;DHT22;26539;51.064;6.346;2022-08-05T01:41:59;21.30;99.90
5218;DHT22;26539;51.064;6.346;2022-08-05T01:44:26;21.30;99.90
5218;DHT22;26539;51.064;6.346;2022-08-05T01:46:52;21.30;99.90
5218;DHT22;26539;51.064;6.346;2022-08-05T01:49:21;21.20;1.00
5218;DHT22;26539;51.064;6.346;2022-08-05T01:51:48;21.20;99.90
5218;DHT22;26539;51.064;6.346;2022-08-05T01:54:15;21.10;1.00
5218;DHT22;26539;51.064;6.346;2022-08-05T01:56:42;21.10;1.00
5218;DHT22;26539;51.064;6.346;2022-08-05T01:59:12;21.00;99.90
5218;DHT22;26539;51.064;6.346;2022-08-05T02:01:42;21.00;1.00
5218;DHT22;26539;51.064;6.346;2022-08-05T02:04:10;20.90;99.90
5218;DHT22;26539;51.064;6.346;2022-08-05T02:06:38;20.80;99.90
5218;DHT22;26539;51.064;6.346;2022-08-05T02:09:04;20.70;1.00
5218;DHT22;26539;51.064;6.346;2022-08-05T02:11:44;20.70;1.00
5218;DHT22;26539;51.064;6.346;2022-08-05T02:14:18;20.60;1.00
5218;DHT22;26539;51.064;6.346;2022-08-05T02:16:50;20.60;94.40
5218;DHT22;26539;51.064;6.346;2022-08-05T02:19:18;20.60;99.90
5218;DHT22;26539;51.064;6.346;2022-08-05T02:22:08;20.60;99.90
5218;DHT22;26539;51.064;6.346;2022-08-05T02:24:38;20.60;99.90
5218;DHT22;26539;51.064;6.346;2022-08-05T02:27:07;20.60;83.80
5218;DHT22;26539;51.064;6.346;2022-08-05T02:29:36;20.70;99.90
5218;DHT22;26539;51.064;6.346;2022-08-05T02:32:03;20.70;99.90
5218;DHT22;26539;51.064;6.346;2022-08-05T02:34:31;20.60;90.20
5218;DHT22;26539;51.064;6.346;2022-08-05T02:37:02;20.60;96.50
5218;DHT22;26539;51.064;6.346;2022-08-05T02:39:31;20.50;99.90
5218;DHT22;26539;51.064;6.346;2022-08-05T02:42:00;20.50;99.90
5218;DHT22;26539;51.064;6.346;2022-08-05T02:44:27;20.40;99.90
5218;DHT22;26539;51.064;6.346;2022-08-05T02:46:55;20.40;99.90
5218;DHT22;26539;51.064;6.346;2022-08-05T02:49:22;20.30;99.90
5218;DHT22;26539;51.064;6.346;2022-08-05T02:51:52;20.30;99.90
5218;DHT22;26539;51.064;6.346;2022-08-05T02:54:19;20.30;99.90
5218;DHT22;26539;51.064;6.346;2022-08-05T02:56:48;20.20;99.90
5218;DHT22;26539;51.064;6.346;2022-08-05T02:59:15;20.00;99.90
5218;DHT22;26539;51.064;6.346;2022-08-05T03:01:42;20.00;99.90
5218;DHT22;26539;51.064;6.346;2022-08-05T03:04:11;20.00;99.90
5218;DHT22;26539;51.064;6.346;2022-08-05T03:06:41;20.10;99.90
5218;DHT22;26539;51.064;6.346;2022-08-05T03:09:11;20.10;1.00
5218;DHT22;26539;51.064;6.346;2022-08-05T03:11:41;20.20;1.00
5218;DHT22;26539;51.064;6.346;2022-08-05T03:14:07;20.20;1.00
5218;DHT22;26539;51.064;6.346;2022-08-05T03:16:32;20.30;99.90
5218;DHT22;26539;51.064;6.346;2022-08-05T03:18:59;20.40;99.90
5218;DHT22;26539;51.064;6.346;2022-08-05T03:21:25;20.40;99.90
5218;DHT22;26539;51.064;6.346;2022-08-05T03:23:51;20.40;99.90
5218;DHT22;26539;51.064;6.346;2022-08-05T03:26:17;20.50;99.90
5218;DHT22;26539;51.064;6.346;2022-08-05T03:28:43;20.50;99.90
5218;DHT22;26539;51.064;6.346;2022-08-05T03:31:08;20.50;99.90
5218;DHT22;26539;51.064;6.346;2022-08-05T03:33:35;20.50;99.90
5218;DHT22;26539;51.064;6.346;2022-08-05T03:36:01;20.50;99.90
5218;DHT22;26539;51.064;6.346;2022-08-05T03:38:26;20.50;99.90
5218;DHT22;26539;51.064;6.346;2022-08-05T03:40:52;20.50;99.90
5218;DHT22;26539;51.064;6.346;2022-08-05T03:43:18;20.50;99.90
5218;DHT22;26539;51.064;6.346;2022-08-05T03:45:45;20.50;99.90
5218;DHT22;26539;51.064;6.346;2022-08-05T03:48:10;20.60;99.90
5218;DHT22;26539;51.064;6.346;2022-08-05T03:50:43;20.60;99.90
5218;DHT22;26539;51.064;6.346;2022-08-05T03:53:17;20.60;99.90
5218;DHT22;26539;51.064;6.346;2022-08-05T03:55:53;20.70;99.90
5218;DHT22;26539;51.064;6.346;2022-08-05T03:58:23;20.70;99.90
5218;DHT22;26539;51.064;6.346;2022-08-05T04:00:52;20.70;99.90
5218;DHT22;26539;51.064;6.346;2022-08-05T04:03:21;20.70;99.90
5218;DHT22;26539;51.064;6.346;2022-08-05T04:05:47;20.70;1.00
5218;DHT22;26539;51.064;6.346;2022-08-05T04:08:13;20.70;99.90
5218;DHT22;26539;51.064;6.346;2022-08-05T04:10:39;20.70;99.90
5218;DHT22;26539;51.064;6.346;2022-08-05T04:13:06;20.70;99.90
5218;DHT22;26539;51.064;6.346;2022-08-05T04:15:32;20.70;99.90
5218;DHT22;26539;51.064;6.346;2022-08-05T04:18:04;20.60;99.90
5218;DHT22;26539;51.064;6.346;2022-08-05T04:20:30;20.70;99.90
5218;DHT22;26539;51.064;6.346;2022-08-05T04:22:56;20.70;99.90
5218;DHT22;26539;51.064;6.346;2022-08-05T04:25:21;20.70;1.00
5218;DHT22;26539;51.064;6.346;2022-08-05T04:27:47;20.70;99.90
5218;DHT22;26539;51.064;6.346;2022-08-05T04:30:12;20.70;99.90
5218;DHT22;26539;51.064;6.346;2022-08-05T04:32:39;20.70;99.90
5218;DHT22;26539;51.064;6.346;2022-08-05T04:35:05;20.60;99.90
5218;DHT22;26539;51.064;6.346;2022-08-05T04:37:31;20.60;99.90
5218;DHT22;26539;51.064;6.346;2022-08-05T04:39:57;20.50;1.00
5218;DHT22;26539;51.064;6.346;2022-08-05T04:42:23;20.50;1.00
5218;DHT22;26539;51.064;6.346;2022-08-05T04:44:49;20.40;1.00
5218;DHT22;26539;51.064;6.346;2022-08-05T04:47:14;20.50;1.00
5218;DHT22;26539;51.064;6.346;2022-08-05T04:49:40;20.50;1.00
5218;DHT22;26539;51.064;6.346;2022-08-05T04:52:06;20.60;1.00
5218;DHT22;26539;51.064;6.346;2022-08-05T04:54:31;20.60;1.00
5218;DHT22;26539;51.064;6.346;2022-08-05T04:56:57;20.70;1.00
5218;DHT22;26539;51.064;6.346;2022-08-05T04:59:22;20.70;1.00
5218;DHT22;26539;51.064;6.346;2022-08-05T05:01:49;20.80;1.00
5218;DHT22;26539;51.064;6.346;2022-08-05T05:04:15;20.80;1.00
5218;DHT22;26539;51.064;6.346;2022-08-05T05:06:40;20.80;1.00
5218;DHT22;26539;51.064;6.346;2022-08-05T05:09:06;20.80;99.90
5218;DHT22;26539;51.064;6.346;2022-08-05T05:11:31;20.80;99.90
5218;DHT22;26539;51.064;6.346;2022-08-05T05:13:57;20.90;99.90
5218;DHT22;26539;51.064;6.346;2022-08-05T05:16:22;20.90;1.00
5218;DHT22;26539;51.064;6.346;2022-08-05T05:18:48;20.90;1.00
5218;DHT22;26539;51.064;6.346;2022-08-05T05:21:14;20.90;99.90
5218;DHT22;26539;51.064;6.346;2022-08-05T05:23:39;20.90;99.90
5218;DHT22;26539;51.064;6.346;2022-08-05T05:26:05;20.90;99.90
5218;DHT22;26539;51.064;6.346;2022-08-05T05:28:30;20.80;99.90
5218;DHT22;26539;51.064;6.346;2022-08-05T05:30:56;20.80;99.90
5218;DHT22;26539;51.064;6.346;2022-08-05T05:33:21;20.80;99.90
5218;DHT22;26539;51.064;6.346;2022-08-05T05:35:47;20.90;99.90
5218;DHT22;26539;51.064;6.346;2022-08-05T05:38:14;20.90;99.90
5218;DHT22;26539;51.064;6.346;2022-08-05T05:40:41;20.90;99.90
5218;DHT22;26539;51.064;6.346;2022-08-05T05:43:07;20.90;99.90
5218;DHT22;26539;51.064;6.346;2022-08-05T05:45:33;20.90;99.90
5218;DHT22;26539;51.064;6.346;2022-08-05T05:47:58;20.90;99.90
5218;DHT22;26539;51.064;6.346;2022-08-05T05:50:24;20.90;99.90
5218;DHT22;26539;51.064;6.346;2022-08-05T05:52:50;20.90;99.90
5218;DHT22;26539;51.064;6.346;2022-08-05T05:55:16;20.90;99.90
5218;DHT22;26539;51.064;6.346;2022-08-05T05:57:43;20.90;99.90
5218;DHT22;26539;51.064;6.346;2022-08-05T06:00:12;20.90;99.90
5218;DHT22;26539;51.064;6.346;2022-08-05T06:02:39;20.90;99.90
5218;DHT22;26539;51.064;6.346;2022-08-05T06:05:09;20.90;99.90
5218;DHT22;26539;51.064;6.346;2022-08-05T06:07:35;20.90;99.90
5218;DHT22;26539;51.064;6.346;2022-08-05T06:10:01;20.90;99.90
5218;DHT22;26539;51.064;6.346;2022-08-05T06:12:26;20.90;99.90
5218;DHT22;26539;51.064;6.346;2022-08-05T06:14:52;20.90;99.90
5218;DHT22;26539;51.064;6.346;2022-08-05T06:17:17;20.90;99.90
5218;DHT22;26539;51.064;6.346;2022-08-05T06:19:43;20.80;99.90
5218;DHT22;26539;51.064;6.346;2022-08-05T06:22:08;20.80;99.90
5218;DHT22;26539;51.064;6.346;2022-08-05T06:24:35;20.80;99.90
5218;DHT22;26539;51.064;6.346;2022-08-05T06:27:01;20.80;99.90
5218;DHT22;26539;51.064;6.346;2022-08-05T06:29:27;20.80;99.90
5218;DHT22;26539;51.064;6.346;2022-08-05T06:31:53;20.70;99.90
5218;DHT22;26539;51.064;6.346;2022-08-05T06:34:18;20.70;99.90
5218;DHT22;26539;51.064;6.346;2022-08-05T06:36:44;20.70;99.90
5218;DHT22;26539;51.064;6.346;2022-08-05T06:39:09;20.70;99.90
5218;DHT22;26539;51.064;6.346;2022-08-05T06:41:35;20.80;99.90
5218;DHT22;26539;51.064;6.346;2022-08-05T06:44:01;20.80;36.50
5218;DHT22;26539;51.064;6.346;2022-08-05T06:46:26;20.80;1.00
5218;DHT22;26539;51.064;6.346;2022-08-05T06:48:53;20.80;1.00
5218;DHT22;26539;51.064;6.346;2022-08-05T06:51:18;20.90;1.00
5218;DHT22;26539;51.064;6.346;2022-08-05T06:53:44;20.90;99.90
5218;DHT22;26539;51.064;6.346;2022-08-05T06:56:10;20.90;99.90
5218;DHT22;26539;51.064;6.346;2022-08-05T06:58:35;20.90;35.50
5218;DHT22;26539;51.064;6.346;2022-08-05T07:01:01;20.90;1.00
5218;DHT22;26539;51.064;6.346;2022-08-05T07:03:28;20.90;1.00
5218;DHT22;26539;51.064;6.346;2022-08-05T07:05:54;20.80;1.00
5218;DHT22;26539;51.064;6.346;2022-08-05T07:08:20;20.80;1.00
5218;DHT22;26539;51.064;6.346;2022-08-05T07:10:53;20.80;1.00
5218;DHT22;26539;51.064;6.346;2022-08-05T07:13:20;20.80;99.90
5218;DHT22;26539;51.064;6.346;2022-08-05T07:16:04;20.80;99.90
5218;DHT22;26539;51.064;6.346;2022-08-05T07:18:48;20.80;82.80
5218;DHT22;26539;51.064;6.346;2022-08-05T07:21:14;20.80;1.00
5218;DHT22;26539;51.064;6.346;2022-08-05T07:23:39;20.70;1.00
5218;DHT22;26539;51.064;6.346;2022-08-05T07:26:05;20.70;1.00
5218;DHT22;26539;51.064;6.346;2022-08-05T07:28:30;20.70;1.00
5218;DHT22;26539;51.064;6.346;2022-08-05T07:30:56;20.70;1.00
5218;DHT22;26539;51.064;6.346;2022-08-05T07:33:22;20.60;1.00
5218;DHT22;26539;51.064;6.346;2022-08-05T07:35:47;20.60;99.90
5218;DHT22;26539;51.064;6.346;2022-08-05T07:38:14;20.70;99.90
5218;DHT22;26539;51.064;6.346;2022-08-05T07:40:40;20.70;99.90
5218;DHT22;26539;51.064;6.346;2022-08-05T07:43:06;20.70;99.90
5218;DHT22;26539;51.064;6.346;2022-08-05T07:45:32;20.70;77.70
5218;DHT22;26539;51.064;6.346;2022-08-05T07:47:57;20.70;1.00
5218;DHT22;26539;51.064;6.346;2022-08-05T07:50:23;20.70;1.00
5218;DHT22;26539;51.064;6.346;2022-08-05T07:52:49;20.70;1.00
5218;DHT22;26539;51.064;6.346;2022-08-05T07:55:14;20.70;1.00
5218;DHT22;26539;51.064;6.346;2022-08-05T07:57:40;20.70;1.00
5218;DHT22;26539;51.064;6.346;2022-08-05T08:00:06;20.70;1.00
5218;DHT22;26539;51.064;6.346;2022-08-05T08:02:32;20.60;1.00
5218;DHT22;26539;51.064;6.346;2022-08-05T08:04:59;20.60;99.90
5218;DHT22;26539;51.064;6.346;2022-08-05T08:07:25;20.60;99.90
5218;DHT22;26539;51.064;6.346;2022-08-05T08:09:52;20.60;99.90
5218;DHT22;26539;51.064;6.346;2022-08-05T08:12:17;20.60;99.90
5218;DHT22;26539;51.064;6.346;2022-08-05T08:14:44;20.70;99.90
5218;DHT22;26539;51.064;6.346;2022-08-05T08:17:10;20.70;99.90
5218;DHT22;26539;51.064;6.346;2022-08-05T08:19:36;20.80;99.90
5218;DHT22;26539;51.064;6.346;2022-08-05T08:22:03;20.80;1.00
5218;DHT22;26539;51.064;6.346;2022-08-05T08:24:29;20.80;1.00
5218;DHT22;26539;51.064;6.346;2022-08-05T08:26:55;20.80;1.00
5218;DHT22;26539;51.064;6.346;2022-08-05T08:29:21;20.80;1.00
5218;DHT22;26539;51.064;6.346;2022-08-05T08:31:47;20.80;99.90
5218;DHT22;26539;51.064;6.346;2022-08-05T08:34:13;20.90;99.90
5218;DHT22;26539;51.064;6.346;2022-08-05T08:36:39;21.00;1.00
5218;DHT22;26539;51.064;6.346;2022-08-05T08:39:04;21.10;1.00
5218;DHT22;26539;51.064;6.346;2022-08-05T08:41:32;21.10;1.00
5218;DHT22;26539;51.064;6.346;2022-08-05T08:44:00;21.10;99.90
5218;DHT22;26539;51.064;6.346;2022-08-05T08:46:28;21.00;99.90
5218;DHT22;26539;51.064;6.346;2022-08-05T08:48:55;21.00;99.90
5218;DHT22;26539;51.064;6.346;2022-08-05T08:51:22;21.00;99.90
5218;DHT22;26539;51.064;6.346;2022-08-05T08:53:48;21.10;99.90
5218;DHT22;26539;51.064;6.346;2022-08-05T08:56:15;21.20;99.90
5218;DHT22;26539;51.064;6.346;2022-08-05T08:58:41;21.30;1.00
5218;DHT22;26539;51.064;6.346;2022-08-05T09:01:08;21.50;1.00
5218;DHT22;26539;51.064;6.346;2022-08-05T09:03:35;21.60;1.00
5218;DHT22;26539;51.064;6.346;2022-08-05T09:06:00;21.80;99.90
5218;DHT22;26539;51.064;6.346;2022-08-05T09:08:26;21.90;99.90
5218;DHT22;26539;51.064;6.346;2022-08-05T09:10:52;22.10;99.90
5218;DHT22;26539;51.064;6.346;2022-08-05T09:13:18;22.10;29.70
5218;DHT22;26539;51.064;6.346;2022-08-05T09:15:45;22.00;1.00
5218;DHT22;26539;51.064;6.346;2022-08-05T09:18:10;21.90;1.00
5218;DHT22;26539;51.064;6.346;2022-08-05T09:20:36;21.90;1.00
5218;DHT22;26539;51.064;6.346;2022-08-05T09:23:17;21.80;1.00
5218;DHT22;26539;51.064;6.346;2022-08-05T09:25:50;21.80;1.00
5218;DHT22;26539;51.064;6.346;2022-08-05T09:28:18;21.80;1.00
5218;DHT22;26539;51.064;6.346;2022-08-05T09:30:56;21.90;1.00
5218;DHT22;26539;51.064;6.346;2022-08-05T09:33:45;22.00;1.00
5218;DHT22;26539;51.064;6.346;2022-08-05T09:36:11;22.00;1.00
5218;DHT22;26539;51.064;6.346;2022-08-05T09:38:36;22.00;1.00
5218;DHT22;26539;51.064;6.346;2022-08-05T09:41:04;22.10;99.90
5218;DHT22;26539;51.064;6.346;2022-08-05T09:43:35;22.40;99.90
5218;DHT22;26539;51.064;6.346;2022-08-05T09:46:02;23.10;99.90
5218;DHT22;26539;51.064;6.346;2022-08-05T09:48:33;24.20;22.30
5218;DHT22;26539;51.064;6.346;2022-08-05T09:51:00;24.90;1.00
5218;DHT22;26539;51.064;6.346;2022-08-05T09:53:27;25.20;1.00
5218;DHT22;26539;51.064;6.346;2022-08-05T09:56:01;25.50;99.90
5218;DHT22;26539;51.064;6.346;2022-08-05T09:58:27;25.90;99.90
5218;DHT22;26539;51.064;6.346;2022-08-05T10:01:04;26.00;99.90
5218;DHT22;26539;51.064;6.346;2022-08-05T10:03:30;26.50;99.90
5218;DHT22;26539;51.064;6.346;2022-08-05T10:06:07;28.30;99.90
5218;DHT22;26539;51.064;6.346;2022-08-05T10:08:37;28.80;99.90
5218;DHT22;26539;51.064;6.346;2022-08-05T10:11:14;29.30;99.90
5218;DHT22;26539;51.064;6.346;2022-08-05T10:13:43;29.70;99.90
5218;DHT22;26539;51.064;6.346;2022-08-05T10:16:33;30.10;99.90
5218;DHT22;26539;51.064;6.346;2022-08-05T10:19:00;31.60;99.90
5218;DHT22;26539;51.064;6.346;2022-08-05T10:21:25;31.70;99.90
5218;DHT22;26539;51.064;6.346;2022-08-05T10:23:52;31.10;99.90
5218;DHT22;26539;51.064;6.346;2022-08-05T10:26:18;30.80;99.90
5218;DHT22;26539;51.064;6.346;2022-08-05T10:28:45;30.60;99.90
5218;DHT22;26539;51.064;6.346;2022-08-05T10:31:13;30.20;99.90
5218;DHT22;26539;51.064;6.346;2022-08-05T10:33:41;29.90;99.90
5218;DHT22;26539;51.064;6.346;2022-08-05T10:36:07;29.90;99.90
5218;DHT22;26539;51.064;6.346;2022-08-05T10:38:34;29.90;99.90
5218;DHT22;26539;51.064;6.346;2022-08-05T10:46:15;32.60;99.90
5218;DHT22;26539;51.064;6.346;2022-08-05T10:48:44;34.70;99.90
5218;DHT22;26539;51.064;6.346;2022-08-05T10:51:15;35.20;99.90
5218;DHT22;26539;51.064;6.346;2022-08-05T10:53:44;35.80;99.90
5218;DHT22;26539;51.064;6.346;2022-08-05T10:56:18;36.10;99.90
5218;DHT22;26539;51.064;6.346;2022-08-05T11:01:28;38.70;99.90
5218;DHT22;26539;51.064;6.346;2022-08-05T11:04:20;39.90;99.90
5218;DHT22;26539;51.064;6.346;2022-08-05T11:07:06;40.10;99.90
5218;DHT22;26539;51.064;6.346;2022-08-05T11:09:43;41.30;95.60
5218;DHT22;26539;51.064;6.346;2022-08-05T11:15:14;41.10;82.20
5218;DHT22;26539;51.064;6.346;2022-08-05T11:17:42;40.50;72.70
5218;DHT22;26539;51.064;6.346;2022-08-05T11:23:41;37.90;72.70
5218;DHT22;26539;51.064;6.346;2022-08-05T11:26:09;36.50;53.40
5218;DHT22;26539;51.064;6.346;2022-08-05T11:33:37;33.60;49.10
5218;DHT22;26539;51.064;6.346;2022-08-05T11:36:05;32.90;49.90
5218;DHT22;26539;51.064;6.346;2022-08-05T11:44:02;31.50;52.80
5218;DHT22;26539;51.064;6.346;2022-08-05T11:46:33;31.30;52.90
5218;DHT22;26539;51.064;6.346;2022-08-05T11:49:10;32.30;58.90
5218;DHT22;26539;51.064;6.346;2022-08-05T11:51:40;32.70;59.80
5218;DHT22;26539;51.064;6.346;2022-08-05T11:54:07;33.50;63.00
5218;DHT22;26539;51.064;6.346;2022-08-05T11:56:46;34.50;66.10
5218;DHT22;26539;51.064;6.346;2022-08-05T11:59:19;35.60;68.60
5218;DHT22;26539;51.064;6.346;2022-08-05T12:02:15;36.60;68.70
5218;DHT22;26539;51.064;6.346;2022-08-05T12:04:45;37.00;63.50
5218;DHT22;26539;51.064;6.346;2022-08-05T12:07:15;37.60;81.30
5218;DHT22;26539;51.064;6.346;2022-08-05T12:09:49;38.00;59.40
5218;DHT22;26539;51.064;6.346;2022-08-05T12:12:22;38.20;56.90
5218;DHT22;26539;51.064;6.346;2022-08-05T12:14:53;37.80;52.50
5218;DHT22;26539;51.064;6.346;2022-08-05T12:17:25;37.80;50.60
5218;DHT22;26539;51.064;6.346;2022-08-05T12:19:53;38.10;49.80
5218;DHT22;26539;51.064;6.346;2022-08-05T12:22:24;38.20;60.90
5218;DHT22;26539;51.064;6.346;2022-08-05T12:24:50;38.70;48.70
5218;DHT22;26539;51.064;6.346;2022-08-05T12:27:34;39.00;46.50
5218;DHT22;26539;51.064;6.346;2022-08-05T12:30:03;38.90;42.90
5218;DHT22;26539;51.064;6.346;2022-08-05T12:32:33;39.00;43.00
5218;DHT22;26539;51.064;6.346;2022-08-05T12:35:02;38.40;39.00
5218;DHT22;26539;51.064;6.346;2022-08-05T12:37:28;37.30;35.60
5218;DHT22;26539;51.064;6.346;2022-08-05T12:39:56;36.50;33.40
5218;DHT22;26539;51.064;6.346;2022-08-05T12:42:22;36.30;33.80
5218;DHT22;26539;51.064;6.346;2022-08-05T12:44:48;35.70;32.30
5218;DHT22;26539;51.064;6.346;2022-08-05T12:47:26;36.00;34.10
5218;DHT22;26539;51.064;6.346;2022-08-05T12:49:51;36.00;34.10
5218;DHT22;26539;51.064;6.346;2022-08-05T12:52:18;36.60;35.90
5218;DHT22;26539;51.064;6.346;2022-08-05T12:54:45;36.30;34.40
5218;DHT22;26539;51.064;6.346;2022-08-05T12:57:13;35.70;32.80
5218;DHT22;26539;51.064;6.346;2022-08-05T12:59:50;34.40;28.80
5218;DHT22;26539;51.064;6.346;2022-08-05T13:02:21;32.70;24.60
5218;DHT22;26539;51.064;6.346;2022-08-05T13:04:48;31.10;31.90
5218;DHT22;26539;51.064;6.346;2022-08-05T13:07:20;29.90;20.90
5218;DHT22;26539;51.064;6.346;2022-08-05T13:09:54;28.90;20.10
5218;DHT22;26539;51.064;6.346;2022-08-05T13:12:22;28.10;22.10
5218;DHT22;26539;51.064;6.346;2022-08-05T13:14:56;27.50;24.40
5218;DHT22;26539;51.064;6.346;2022-08-05T13:17:25;27.00;27.30
5218;DHT22;26539;51.064;6.346;2022-08-05T13:20:06;26.70;30.00
5218;DHT22;26539;51.064;6.346;2022-08-05T13:22:34;26.50;35.40
5218;DHT22;26539;51.064;6.346;2022-08-05T13:25:01;26.50;38.90
5218;DHT22;26539;51.064;6.346;2022-08-05T13:27:32;26.60;42.10
5218;DHT22;26539;51.064;6.346;2022-08-05T13:29:58;26.80;46.40
5218;DHT22;26539;51.064;6.346;2022-08-05T13:32:24;27.00;50.00
5218;DHT22;26539;51.064;6.346;2022-08-05T13:34:50;27.20;52.00
5218;DHT22;26539;51.064;6.346;2022-08-05T13:37:17;27.40;53.60
5218;DHT22;26539;51.064;6.346;2022-08-05T13:39:43;27.60;54.60
5218;DHT22;26539;51.064;6.346;2022-08-05T13:42:09;27.80;56.40
5218;DHT22;26539;51.064;6.346;2022-08-05T13:44:35;28.10;57.40
5218;DHT22;26539;51.064;6.346;2022-08-05T13:47:01;28.40;57.20
5218;DHT22;26539;51.064;6.346;2022-08-05T13:49:26;28.80;57.50
5218;DHT22;26539;51.064;6.346;2022-08-05T13:51:52;29.20;57.10
5218;DHT22;26539;51.064;6.346;2022-08-05T13:54:17;29.60;56.80
5218;DHT22;26539;51.064;6.346;2022-08-05T13:56:45;29.80;57.10
5218;DHT22;26539;51.064;6.346;2022-08-05T13:59:11;30.00;57.20
5218;DHT22;26539;51.064;6.346;2022-08-05T14:01:36;30.30;57.20
5218;DHT22;26539;51.064;6.346;2022-08-05T14:04:02;31.10;59.10
5218;DHT22;26539;51.064;6.346;2022-08-05T14:06:46;31.60;58.70
5218;DHT22;26539;51.064;6.346;2022-08-05T14:09:12;31.70;56.70
5218;DHT22;26539;51.064;6.346;2022-08-05T14:11:37;31.70;54.90
5218;DHT22;26539;51.064;6.346;2022-08-05T14:14:06;31.70;54.00
5218;DHT22;26539;51.064;6.346;2022-08-05T14:16:32;31.80;53.40
5218;DHT22;26539;51.064;6.346;2022-08-05T14:18:58;32.00;53.00
5218;DHT22;26539;51.064;6.346;2022-08-05T14:21:23;32.20;52.50
5218;DHT22;26539;51.064;6.346;2022-08-05T14:23:49;32.20;52.20
5218;DHT22;26539;51.064;6.346;2022-08-05T14:26:15;32.10;51.20
5218;DHT22;26539;51.064;6.346;2022-08-05T14:28:40;31.90;48.90
5218;DHT22;26539;51.064;6.346;2022-08-05T14:31:06;31.70;47.70
5218;DHT22;26539;51.064;6.346;2022-08-05T14:33:32;31.50;46.90
5218;DHT22;26539;51.064;6.346;2022-08-05T14:35:58;31.30;46.80
5218;DHT22;26539;51.064;6.346;2022-08-05T14:38:24;31.30;46.20
5218;DHT22;26539;51.064;6.346;2022-08-05T14:40:50;31.20;46.60
5218;DHT22;26539;51.064;6.346;2022-08-05T14:43:28;31.00;46.60
5218;DHT22;26539;51.064;6.346;2022-08-05T14:46:03;30.80;45.70
5218;DHT22;26539;51.064;6.346;2022-08-05T14:48:32;30.70;45.20
5218;DHT22;26539;51.064;6.346;2022-08-05T14:51:05;30.90;45.10
5218;DHT22;26539;51.064;6.346;2022-08-05T14:53:31;31.10;44.40
5218;DHT22;26539;51.064;6.346;2022-08-05T14:55:57;31.10;44.40
5218;DHT22;26539;51.064;6.346;2022-08-05T14:58:22;31.10;42.70
5218;DHT22;26539;51.064;6.346;2022-08-05T15:00:48;30.90;39.60
5218;DHT22;26539;51.064;6.346;2022-08-05T15:03:13;30.70;37.70
5218;DHT22;26539;51.064;6.346;2022-08-05T15:05:39;30.30;35.20
5218;DHT22;26539;51.064;6.346;2022-08-05T15:08:04;29.90;33.20
5218;DHT22;26539;51.064;6.346;2022-08-05T15:10:30;29.70;32.90
5218;DHT22;26539;51.064;6.346;2022-08-05T15:12:55;29.60;33.10
5218;DHT22;26539;51.064;6.346;2022-08-05T15:15:21;29.80;32.90
5218;DHT22;26539;51.064;6.346;2022-08-05T15:17:47;30.00;33.70
5218;DHT22;26539;51.064;6.346;2022-08-05T15:20:12;30.30;34.80
5218;DHT22;26539;51.064;6.346;2022-08-05T15:22:38;30.50;33.90
5218;DHT22;26539;51.064;6.346;2022-08-05T15:25:05;30.60;33.90
5218;DHT22;26539;51.064;6.346;2022-08-05T15:27:31;30.90;34.30
5218;DHT22;26539;51.064;6.346;2022-08-05T15:29:57;30.80;33.10
5218;DHT22;26539;51.064;6.346;2022-08-05T15:32:23;30.60;32.00
5218;DHT22;26539;51.064;6.346;2022-08-05T15:34:49;30.30;29.50
5218;DHT22;26539;51.064;6.346;2022-08-05T15:37:14;30.10;28.10
5218;DHT22;26539;51.064;6.346;2022-08-05T15:39:40;29.90;27.70
5218;DHT22;26539;51.064;6.346;2022-08-05T15:42:06;29.70;27.10
5218;DHT22;26539;51.064;6.346;2022-08-05T15:44:31;29.40;25.70
5218;DHT22;26539;51.064;6.346;2022-08-05T15:47:03;29.00;24.50
5218;DHT22;26539;51.064;6.346;2022-08-05T15:49:28;28.80;23.90
5218;DHT22;26539;51.064;6.346;2022-08-05T15:51:54;28.50;23.00
5218;DHT22;26539;51.064;6.346;2022-08-05T15:54:19;28.30;22.70
5218;DHT22;26539;51.064;6.346;2022-08-05T15:56:45;28.00;21.90
5218;DHT22;26539;51.064;6.346;2022-08-05T15:59:10;28.00;22.90
5218;DHT22;26539;51.064;6.346;2022-08-05T16:01:36;28.00;23.00
5218;DHT22;26539;51.064;6.346;2022-08-05T16:04:02;28.10;23.50
5218;DHT22;26539;51.064;6.346;2022-08-05T16:06:27;28.30;23.50
5218;DHT22;26539;51.064;6.346;2022-08-05T16:08:56;28.50;24.00
5218;DHT22;26539;51.064;6.346;2022-08-05T16:11:21;28.50;24.40
5218;DHT22;26539;51.064;6.346;2022-08-05T16:13:47;28.50;24.90
5218;DHT22;26539;51.064;6.346;2022-08-05T16:16:12;28.40;24.10
5218;DHT22;26539;51.064;6.346;2022-08-05T16:18:39;28.30;24.40
5218;DHT22;26539;51.064;6.346;2022-08-05T16:21:05;28.40;24.00